createdAt,value
2018-09-01T00:02:25.415Z,79.92
2018-09-01T00:05:01.252Z,79.16
2018-09-01T00:07:36.983Z,79.56
2018-09-01T00:10:12.869Z,78.62
2018-09-01T00:12:49.161Z,79.13
2018-09-01T00:15:27.003Z,79.09
2018-09-01T00:18:02.834Z,79.70
2018-09-01T00:20:38.563Z,79.65
2018-09-01T00:23:14.572Z,78.97
2018-09-01T00:25:50.554Z,79.45
2018-09-01T00:28:26.402Z,81.26
2018-09-01T00:31:02.820Z,82.00
2018-09-01T00:33:39.200Z,82.38
2018-09-01T00:36:15.139Z,81.96
2018-09-01T00:38:56.177Z,80.93
2018-09-01T00:41:33.022Z,80.61
2018-09-01T00:44:08.891Z,80.99
2018-09-01T00:46:44.836Z,82.30
2018-09-01T00:49:20.871Z,82.58
2018-09-01T00:51:56.519Z,81.84
2018-09-01T00:54:32.486Z,81.97
2018-09-01T00:57:08.975Z,83.07
2018-09-01T00:59:44.884Z,83.35
2018-09-01T01:02:20.702Z,82.83
2018-09-01T01:04:56.617Z,83.20
2018-09-01T01:07:32.497Z,84.50
2018-09-01T01:10:08.576Z,85.26
2018-09-01T01:12:45.101Z,85.52
2018-09-01T01:15:20.970Z,85.43
2018-09-01T01:17:57.268Z,85.34
2018-09-01T01:20:33.089Z,85.18
2018-09-01T01:23:08.949Z,84.88
2018-09-01T01:25:44.977Z,84.95
2018-09-01T01:28:20.649Z,85.87
2018-09-01T01:30:56.611Z,85.99
2018-09-01T01:33:32.909Z,85.37
2018-09-01T01:36:08.708Z,83.91
2018-09-01T01:38:45.828Z,83.99
2018-09-01T01:41:22.726Z,83.19
2018-09-01T01:43:58.446Z,83.62
2018-09-01T01:46:34.431Z,83.06
2018-09-01T01:49:10.501Z,82.88
2018-09-01T01:51:46.434Z,83.55
2018-09-01T01:54:22.235Z,85.13
2018-09-01T01:56:58.296Z,86.14
2018-09-01T01:59:33.916Z,86.63
2018-09-01T02:02:10.248Z,86.80
2018-09-01T02:04:45.979Z,86.34
2018-09-01T02:07:21.763Z,85.47
2018-09-01T02:09:57.762Z,86.26
2018-09-01T02:12:33.571Z,86.68
2018-09-01T02:15:09.580Z,86.29
2018-09-01T02:17:45.498Z,85.94
2018-09-01T02:20:21.264Z,84.49
2018-09-01T02:22:57.195Z,83.95
2018-09-01T02:25:32.991Z,83.72
2018-09-01T02:28:08.793Z,82.84
2018-09-01T02:30:44.744Z,82.38
2018-09-01T02:33:20.575Z,81.85
2018-09-01T02:35:56.365Z,81.26
2018-09-01T02:38:32.292Z,82.16
2018-09-01T02:41:08.434Z,82.31
2018-09-01T02:43:44.414Z,82.70
2018-09-01T02:46:20.175Z,84.02
2018-09-01T02:48:56.110Z,86.37
2018-09-01T02:51:31.881Z,89.06
2018-09-01T02:54:07.775Z,88.21
2018-09-01T02:56:43.382Z,88.47
2018-09-01T02:59:19.310Z,87.11
2018-09-01T03:01:55.927Z,85.91
2018-09-01T03:04:31.863Z,86.54
2018-09-01T03:07:07.623Z,85.54
2018-09-01T03:09:43.431Z,85.44
2018-09-01T03:12:19.194Z,84.63
2018-09-01T03:14:55.130Z,84.22
2018-09-01T03:17:30.861Z,84.67
2018-09-01T03:20:06.909Z,85.02
2018-09-01T03:22:42.663Z,86.75
2018-09-01T03:25:18.526Z,87.72
2018-09-01T03:27:55.855Z,88.50
2018-09-01T03:30:32.700Z,89.09
2018-09-01T03:33:08.547Z,90.82
2018-09-01T03:35:44.401Z,90.68
2018-09-01T03:38:20.274Z,89.07
2018-09-01T03:40:56.205Z,87.02
2018-09-01T03:43:32.103Z,85.66
2018-09-01T03:46:08.033Z,85.31
2018-09-01T03:48:45.450Z,83.89
2018-09-01T03:51:21.507Z,84.03
2018-09-01T03:53:57.420Z,83.43
2018-09-01T03:56:33.306Z,82.94
2018-09-01T03:59:09.214Z,82.35
2018-09-01T04:01:45.363Z,82.24
2018-09-01T04:04:21.137Z,83.01
2018-09-01T04:06:57.058Z,85.37
2018-09-01T04:09:32.801Z,86.90
2018-09-01T04:12:09.570Z,88.21
2018-09-01T04:14:50.471Z,89.63
2018-09-01T04:17:26.450Z,91.15
2018-09-01T04:20:02.297Z,90.90
2018-09-01T04:22:38.147Z,90.99
2018-09-01T04:25:13.917Z,89.76
2018-09-01T04:27:49.572Z,89.08
2018-09-01T04:30:25.438Z,88.42
2018-09-01T04:33:01.666Z,87.14
2018-09-01T04:35:38.081Z,87.62
2018-09-01T04:38:14.968Z,87.35
2018-09-01T04:40:50.857Z,85.43
2018-09-01T04:43:27.241Z,83.59
2018-09-01T04:46:03.694Z,82.41
2018-09-01T04:48:39.730Z,80.96
2018-09-01T04:51:15.789Z,79.78
2018-09-01T04:53:51.548Z,79.04
2018-09-01T04:56:27.533Z,78.95
2018-09-01T04:59:03.365Z,79.03
2018-09-01T05:01:39.130Z,80.56
2018-09-01T05:04:15.245Z,80.97
2018-09-01T05:06:51.549Z,81.47
2018-09-01T05:09:27.746Z,80.13
2018-09-01T05:12:03.829Z,79.01
2018-09-01T05:14:39.636Z,78.77
2018-09-01T05:17:15.981Z,78.26
2018-09-01T05:19:51.848Z,78.90
2018-09-01T05:22:27.593Z,79.14
2018-09-01T05:25:03.471Z,78.98
2018-09-01T05:27:39.929Z,77.72
2018-09-01T05:30:16.181Z,76.13
2018-09-01T05:32:52.107Z,76.40
2018-09-01T05:35:28.061Z,76.33
2018-09-01T05:38:04.160Z,75.74
2018-09-01T05:40:40.209Z,74.92
2018-09-01T05:43:16.374Z,74.67
2018-09-01T05:45:52.840Z,74.89
2018-09-01T05:48:28.696Z,73.88
2018-09-01T05:51:04.715Z,71.98
2018-09-01T05:53:40.556Z,71.72
2018-09-01T05:56:16.945Z,69.93
2018-09-01T05:58:52.756Z,67.97
2018-09-01T06:01:28.974Z,67.12
2018-09-01T06:04:04.960Z,62.94
2018-09-01T06:06:42.520Z,61.70
2018-09-01T06:09:18.404Z,60.75
2018-09-01T06:11:54.301Z,59.68
2018-09-01T06:14:30.546Z,59.11
2018-09-01T06:17:11.169Z,58.87
2018-09-01T06:19:47.132Z,57.75
2018-09-01T06:22:23.193Z,57.88
2018-09-01T06:25:00.106Z,57.27
2018-09-01T06:27:38.706Z,56.50
2018-09-01T06:30:18.945Z,57.42
2018-09-01T06:32:55.201Z,58.24
2018-09-01T06:35:31.473Z,57.83
2018-09-01T06:38:07.500Z,55.67
2018-09-01T06:40:38.475Z,56.61
2018-09-01T06:43:13.612Z,56.33
2018-09-01T06:45:44.650Z,56.19
2018-09-01T06:48:16.265Z,55.35
2018-09-01T06:50:47.218Z,53.93
2018-09-01T06:53:18.525Z,54.44
2018-09-01T06:55:51.225Z,53.42
2018-09-01T06:58:22.214Z,52.78
2018-09-01T07:00:53.650Z,53.36
2018-09-01T07:03:24.505Z,52.90
2018-09-01T07:05:56.361Z,53.17
2018-09-01T07:08:27.183Z,51.95
2018-09-01T07:10:58.697Z,51.02
2018-09-01T07:13:29.837Z,51.57
2018-09-01T07:16:03.247Z,50.80
2018-09-01T07:18:34.171Z,49.90
2018-09-01T07:21:05.658Z,49.40
2018-09-01T07:23:36.478Z,49.85
2018-09-01T07:26:07.929Z,50.76
2018-09-01T07:28:41.392Z,49.82
2018-09-01T07:31:12.583Z,49.08
2018-09-01T07:33:43.750Z,47.86
2018-09-01T07:36:14.928Z,47.13
2018-09-01T07:38:45.942Z,45.74
2018-09-01T07:41:17.165Z,45.72
2018-09-01T07:43:48.048Z,46.38
2018-09-01T07:46:18.853Z,44.37
2018-09-01T07:48:50.019Z,41.74
2018-09-01T07:51:21.436Z,41.62
2018-09-01T07:56:58.044Z,41.15
2018-09-01T07:59:28.892Z,41.63
2018-09-01T08:02:00.099Z,40.52
2018-09-01T08:04:30.908Z,40.77
2018-09-01T08:07:01.756Z,42.33
2018-09-01T08:09:32.551Z,41.00
2018-09-01T08:12:03.364Z,39.50
2018-09-01T08:14:34.360Z,38.78
2018-09-01T08:17:05.948Z,39.56
2018-09-01T08:19:37.162Z,40.45
2018-09-01T08:22:08.255Z,41.29
2018-09-01T08:24:39.282Z,39.91
2018-09-01T08:27:10.120Z,38.55
2018-09-01T08:29:41.587Z,37.88
2018-09-01T08:32:13.198Z,37.66
2018-09-01T08:34:44.336Z,38.81
2018-09-01T08:37:15.216Z,38.94
2018-09-01T08:39:46.744Z,38.27
2018-09-01T08:42:17.565Z,37.76
2018-09-01T08:44:48.871Z,37.73
2018-09-01T08:47:20.004Z,37.49
2018-09-01T08:49:50.963Z,37.00
2018-09-01T08:52:21.931Z,36.75
2018-09-01T08:54:52.749Z,36.12
2018-09-01T08:57:23.657Z,35.75
2018-09-01T08:59:58.717Z,33.73
2018-09-01T09:02:30.263Z,33.52
2018-09-01T09:05:01.554Z,33.17
2018-09-01T09:07:32.818Z,34.29
2018-09-01T09:10:05.125Z,32.12
2018-09-01T09:12:37.773Z,32.75
2018-09-01T09:15:08.659Z,30.61
2018-09-01T09:17:42.295Z,29.55
2018-09-01T09:20:16.239Z,31.50
2018-09-01T09:22:47.455Z,31.62
2018-09-01T09:25:19.855Z,29.69
2018-09-01T09:27:50.802Z,29.45
2018-09-01T09:30:21.689Z,28.50
2018-09-01T09:32:54.464Z,28.70
2018-09-01T09:35:25.233Z,30.39
2018-09-01T09:37:56.216Z,29.04
2018-09-01T09:40:27.004Z,29.13
2018-09-01T09:42:58.483Z,27.35
2018-09-01T09:45:29.273Z,28.91
2018-09-01T09:48:00.173Z,27.70
2018-09-01T09:50:30.967Z,28.39
2018-09-01T09:53:02.068Z,27.63
2018-09-01T09:55:33.072Z,27.99
2018-09-01T09:58:04.004Z,27.31
2018-09-01T10:00:40.132Z,26.83
2018-09-01T10:03:11.138Z,26.69
2018-09-01T10:05:42.661Z,27.26
2018-09-01T10:08:13.679Z,27.27
2018-09-01T10:10:44.482Z,27.09
2018-09-01T10:13:15.325Z,26.94
2018-09-01T10:15:46.761Z,26.05
2018-09-01T10:18:17.849Z,25.62
2018-09-01T10:20:48.778Z,24.33
2018-09-01T10:23:19.661Z,25.84
2018-09-01T10:25:51.230Z,24.83
2018-09-01T10:28:22.054Z,24.99
2018-09-01T10:30:52.909Z,25.83
2018-09-01T10:33:23.965Z,26.49
2018-09-01T10:35:55.473Z,25.26
2018-09-01T10:38:26.844Z,26.23
2018-09-01T10:40:57.902Z,25.63
2018-09-01T10:43:28.810Z,26.21
2018-09-01T10:45:59.672Z,24.84
2018-09-01T10:48:42.857Z,24.96
2018-09-01T10:51:13.654Z,23.23
2018-09-01T10:53:45.155Z,23.21
2018-09-01T10:56:15.964Z,24.82
2018-09-01T10:58:46.823Z,27.07
2018-09-01T11:01:17.648Z,23.66
2018-09-01T11:03:48.500Z,22.93
2018-09-01T11:06:19.345Z,23.42
2018-09-01T11:08:50.249Z,21.81
2018-09-01T11:11:21.096Z,22.07
2018-09-01T11:13:51.931Z,23.42
2018-09-01T11:16:23.073Z,22.08
2018-09-01T11:18:54.089Z,23.24
2018-09-01T11:21:25.220Z,21.55
2018-09-01T11:23:56.205Z,22.50
2018-09-01T11:26:27.724Z,23.02
2018-09-01T11:28:58.535Z,23.71
2018-09-01T11:31:29.365Z,23.74
2018-09-01T11:34:00.338Z,22.78
2018-09-01T11:36:31.184Z,21.11
2018-09-01T11:39:03.193Z,21.78
2018-09-01T11:41:34.039Z,23.36
2018-09-01T11:44:06.584Z,23.29
2018-09-01T11:46:37.450Z,21.51
2018-09-01T11:49:08.284Z,20.93
2018-09-01T11:51:39.145Z,20.48
2018-09-01T11:54:10.459Z,20.17
2018-09-01T11:56:41.351Z,19.49
2018-09-01T11:59:12.631Z,19.86
2018-09-01T12:01:43.447Z,20.68
2018-09-01T12:04:14.312Z,21.31
2018-09-01T12:06:45.219Z,20.50
2018-09-01T12:09:16.166Z,21.19
2018-09-01T12:11:47.255Z,21.86
2018-09-01T12:14:18.116Z,21.07
2018-09-01T12:16:49.343Z,21.05
2018-09-01T12:19:20.164Z,20.54
2018-09-01T12:21:51.013Z,20.76
2018-09-01T12:24:21.886Z,21.36
2018-09-01T12:26:53.577Z,20.20
2018-09-01T12:29:24.462Z,19.93
2018-09-01T12:31:55.252Z,20.01
2018-09-01T12:34:26.285Z,19.17
2018-09-01T12:36:57.061Z,17.73
2018-09-01T12:39:27.991Z,19.10
2018-09-01T12:41:59.062Z,18.83
2018-09-01T12:44:30.081Z,18.00
2018-09-01T12:47:00.875Z,19.20
2018-09-01T12:49:31.713Z,19.70
2018-09-01T12:52:02.684Z,18.87
2018-09-01T12:54:33.829Z,19.50
2018-09-01T12:57:04.628Z,19.12
2018-09-01T12:59:35.573Z,19.67
2018-09-01T13:02:06.507Z,19.35
2018-09-01T13:04:37.349Z,18.74
2018-09-01T13:07:14.745Z,19.13
2018-09-01T13:09:45.637Z,19.02
2018-09-01T13:12:16.495Z,18.72
2018-09-01T13:14:47.761Z,19.00
2018-09-01T13:17:18.676Z,18.96
2018-09-01T13:19:49.519Z,19.54
2018-09-01T13:22:20.322Z,18.19
2018-09-01T13:24:51.188Z,18.70
2018-09-01T13:27:21.970Z,16.85
2018-09-01T13:29:53.818Z,16.65
2018-09-01T13:32:25.268Z,17.39
2018-09-01T13:34:56.156Z,17.81
2018-09-01T13:37:27.172Z,16.94
2018-09-01T13:39:58.027Z,15.98
2018-09-01T13:42:29.068Z,16.83
2018-09-01T13:45:00.548Z,16.49
2018-09-01T13:47:31.574Z,16.40
2018-09-01T13:50:02.454Z,16.79
2018-09-01T13:52:33.566Z,17.84
2018-09-01T13:55:04.910Z,17.58
2018-09-01T13:57:35.699Z,18.69
2018-09-01T14:00:07.456Z,18.55
2018-09-01T14:02:38.294Z,17.43
2018-09-01T14:05:09.168Z,16.52
2018-09-01T14:07:39.994Z,15.72
2018-09-01T14:10:11.146Z,17.43
2018-09-01T14:12:42.980Z,17.20
2018-09-01T14:15:13.967Z,16.16
2018-09-01T14:17:45.441Z,14.49
2018-09-01T14:20:16.293Z,13.77
2018-09-01T14:22:47.224Z,14.18
2018-09-01T14:25:18.960Z,14.24
2018-09-01T14:27:49.807Z,15.75
2018-09-01T14:30:20.931Z,15.21
2018-09-01T14:32:51.833Z,15.13
2018-09-01T14:35:22.948Z,14.67
2018-09-01T14:37:53.743Z,13.91
2018-09-01T14:40:25.162Z,13.57
2018-09-01T14:42:56.916Z,16.01
2018-09-01T14:45:27.845Z,14.88
2018-09-01T14:47:58.671Z,13.46
2018-09-01T14:50:29.651Z,14.40
2018-09-01T14:53:02.001Z,14.40
2018-09-01T14:55:33.025Z,13.65
2018-09-01T14:58:03.899Z,15.20
2018-09-01T15:00:35.697Z,16.55
2018-09-01T15:03:06.642Z,18.46
2018-09-01T15:05:37.468Z,18.82
2018-09-01T15:08:09.238Z,22.06
2018-09-01T15:10:40.301Z,20.84
2018-09-01T15:13:11.114Z,21.54
2018-09-01T15:15:42.321Z,23.84
2018-09-01T15:18:13.903Z,21.62
2018-09-01T15:20:45.371Z,21.59
2018-09-01T15:23:16.302Z,22.27
2018-09-01T15:25:47.717Z,22.34
2018-09-01T15:28:18.951Z,22.95
2018-09-01T15:30:49.845Z,23.85
2018-09-01T15:33:23.316Z,23.77
2018-09-01T15:35:54.434Z,25.11
2018-09-01T15:38:26.297Z,24.79
2018-09-01T15:40:58.172Z,24.10
2018-09-01T15:43:29.429Z,25.28
2018-09-01T15:46:00.269Z,25.23
2018-09-01T15:48:31.497Z,25.70
2018-09-01T15:51:02.541Z,26.07
2018-09-01T15:53:33.337Z,24.93
2018-09-01T15:56:04.569Z,25.54
2018-09-01T15:58:36.345Z,26.11
2018-09-01T16:01:07.686Z,26.14
2018-09-01T16:03:38.709Z,26.80
2018-09-01T16:06:09.744Z,26.12
2018-09-01T16:08:40.541Z,26.80
2018-09-01T16:11:11.465Z,26.59
2018-09-01T16:13:42.351Z,26.79
2018-09-01T16:16:14.013Z,25.83
2018-09-01T16:18:45.124Z,27.57
2018-09-01T16:21:15.935Z,27.22
2018-09-01T16:23:46.987Z,27.54
2018-09-01T16:26:17.915Z,27.87
2018-09-01T16:28:48.931Z,27.62
2018-09-01T16:31:19.777Z,27.79
2018-09-01T16:33:50.664Z,28.15
2018-09-01T16:36:21.510Z,29.47
2018-09-01T16:38:52.329Z,29.83
2018-09-01T16:41:23.268Z,29.77
2018-09-01T16:43:54.771Z,29.70
2018-09-01T16:46:26.608Z,30.25
2018-09-01T16:48:57.558Z,30.97
2018-09-01T16:51:28.525Z,31.75
2018-09-01T16:53:59.335Z,31.89
2018-09-01T16:56:30.326Z,32.32
2018-09-01T16:59:01.134Z,32.70
2018-09-01T17:01:32.164Z,32.71
2018-09-01T17:04:02.988Z,33.48
2018-09-01T17:06:33.885Z,33.76
2018-09-01T17:09:05.969Z,35.58
2018-09-01T17:11:36.874Z,34.76
2018-09-01T17:14:07.701Z,36.52
2018-09-01T17:16:38.543Z,35.87
2018-09-01T17:19:09.472Z,36.29
2018-09-01T17:21:42.760Z,37.26
2018-09-01T17:24:15.344Z,37.31
2018-09-01T17:26:48.181Z,38.00
2018-09-01T17:29:27.672Z,38.05
2018-09-01T17:32:01.867Z,37.57
2018-09-01T17:34:32.884Z,36.88
2018-09-01T17:37:03.715Z,36.93
2018-09-01T17:39:34.923Z,36.84
2018-09-01T17:42:06.287Z,37.42
2018-09-01T17:44:37.065Z,37.75
2018-09-01T17:47:09.577Z,38.93
2018-09-01T17:49:41.594Z,38.93
2018-09-01T17:52:12.440Z,38.49
2018-09-01T17:54:43.432Z,40.19
2018-09-01T17:57:17.757Z,41.59
2018-09-01T17:59:49.361Z,41.50
2018-09-01T18:02:20.480Z,42.15
2018-09-01T18:04:51.789Z,41.90
2018-09-01T18:07:23.074Z,42.48
2018-09-01T18:09:56.545Z,42.22
2018-09-01T18:12:28.018Z,44.10
2018-09-01T18:14:58.875Z,45.00
2018-09-01T18:17:29.996Z,45.11
2018-09-01T18:20:01.032Z,45.05
2018-09-01T18:22:31.995Z,45.04
2018-09-01T18:25:02.917Z,46.92
2018-09-01T18:27:33.903Z,47.92
2018-09-01T18:30:05.273Z,48.03
2018-09-01T18:32:36.585Z,47.66
2018-09-01T18:35:08.363Z,46.52
2018-09-01T18:37:40.054Z,45.14
2018-09-01T18:40:10.911Z,44.37
2018-09-01T18:42:41.837Z,44.98
2018-09-01T18:45:12.652Z,44.30
2018-09-01T18:47:43.475Z,45.00
2018-09-01T18:50:14.268Z,45.97
2018-09-01T18:52:45.193Z,45.79
2018-09-01T18:55:16.166Z,45.09
2018-09-01T18:57:47.383Z,44.00
2018-09-01T19:00:18.213Z,45.93
2018-09-01T19:02:49.266Z,45.56
2018-09-01T19:05:20.386Z,45.88
2018-09-01T19:07:51.341Z,50.03
2018-09-01T19:10:22.302Z,50.61
2018-09-01T19:12:53.848Z,51.82
2018-09-01T19:15:24.667Z,52.24
2018-09-01T19:17:55.513Z,54.06
2018-09-01T19:20:26.523Z,54.86
2018-09-01T19:22:57.347Z,55.72
2018-09-01T19:25:28.744Z,55.73
2018-09-01T19:28:00.237Z,55.46
2018-09-01T19:30:31.052Z,54.75
2018-09-01T19:33:01.903Z,53.97
2018-09-01T19:35:32.698Z,52.24
2018-09-01T19:38:03.712Z,52.98
2018-09-01T19:40:34.628Z,53.81
2018-09-01T19:43:06.223Z,53.47
2018-09-01T19:45:37.918Z,53.42
2018-09-01T19:48:09.758Z,56.04
2018-09-01T19:50:40.563Z,57.03
2018-09-01T19:53:11.426Z,57.57
2018-09-01T19:55:42.244Z,57.79
2018-09-01T19:58:13.275Z,57.14
2018-09-01T20:00:49.919Z,58.61
2018-09-01T20:03:25.821Z,57.97
2018-09-01T20:06:01.725Z,57.99
2018-09-01T20:08:37.661Z,58.28
2018-09-01T20:11:13.425Z,58.31
2018-09-01T20:13:49.522Z,58.31
2018-09-01T20:16:25.272Z,58.41
2018-09-01T20:19:01.049Z,58.69
2018-09-01T20:21:36.952Z,56.17
2018-09-01T20:24:12.968Z,55.47
2018-09-01T20:26:48.935Z,55.43
2018-09-01T20:29:24.841Z,56.37
2018-09-01T20:32:00.893Z,58.71
2018-09-01T20:34:40.878Z,59.44
2018-09-01T20:37:18.004Z,59.91
2018-09-01T20:39:53.834Z,60.46
2018-09-01T20:42:30.301Z,59.88
2018-09-01T20:45:06.631Z,60.11
2018-09-01T20:47:42.622Z,61.46
2018-09-01T20:50:18.511Z,60.07
2018-09-01T20:52:54.273Z,60.60
2018-09-01T20:55:36.721Z,60.12
2018-09-01T20:58:14.090Z,59.41
2018-09-01T21:00:49.848Z,59.20
2018-09-01T21:03:25.637Z,58.79
2018-09-01T21:06:01.681Z,59.06
2018-09-01T21:08:37.594Z,59.42
2018-09-01T21:11:13.471Z,60.49
2018-09-01T21:13:49.865Z,61.58
2018-09-01T21:16:25.815Z,62.09
2018-09-01T21:19:01.827Z,61.97
2018-09-01T21:21:37.755Z,61.78
2018-09-01T21:24:14.195Z,61.75
2018-09-01T21:26:49.884Z,61.23
2018-09-01T21:29:25.717Z,60.98
2018-09-01T21:32:01.644Z,63.36
2018-09-01T21:34:37.408Z,66.07
2018-09-01T21:37:13.241Z,66.48
2018-09-01T21:39:49.168Z,66.47
2018-09-01T21:42:25.057Z,67.25
2018-09-01T21:45:01.049Z,66.72
2018-09-01T21:47:37.145Z,67.01
2018-09-01T21:50:14.659Z,66.50
2018-09-01T21:52:50.626Z,67.08
2018-09-01T21:55:26.487Z,68.17
2018-09-01T21:58:02.159Z,68.65
2018-09-01T22:00:43.684Z,68.88
2018-09-01T22:03:21.060Z,69.03
2018-09-01T22:05:56.779Z,68.19
2018-09-01T22:08:32.791Z,68.46
2018-09-01T22:11:08.451Z,69.85
2018-09-01T22:13:44.279Z,71.57
2018-09-01T22:16:20.097Z,72.24
2018-09-01T22:18:55.972Z,71.50
2018-09-01T22:21:31.732Z,70.48
2018-09-01T22:24:08.267Z,70.75
2018-09-01T22:26:43.876Z,71.19
2018-09-01T22:29:19.887Z,70.94
2018-09-01T22:31:55.661Z,70.48
2018-09-01T22:34:31.488Z,70.38
2018-09-01T22:37:08.177Z,69.77
2018-09-01T22:39:44.143Z,69.49
2018-09-01T22:42:19.916Z,68.50
2018-09-01T22:44:55.712Z,67.49
2018-09-01T22:47:33.099Z,68.36
2018-09-01T22:50:10.143Z,68.95
2018-09-01T22:52:45.860Z,69.20
2018-09-01T22:55:21.811Z,71.86
2018-09-01T22:57:58.094Z,72.98
2018-09-01T23:00:33.797Z,73.40
2018-09-01T23:03:09.913Z,72.69
2018-09-01T23:05:45.796Z,72.73
2018-09-01T23:08:21.975Z,72.40
2018-09-01T23:10:57.766Z,71.77
2018-09-01T23:13:33.564Z,71.62
2018-09-01T23:16:09.395Z,71.26
2018-09-01T23:18:45.915Z,72.42
2018-09-01T23:21:21.722Z,73.24
2018-09-01T23:23:58.328Z,72.69
2018-09-01T23:26:34.101Z,73.09
2018-09-01T23:29:09.850Z,75.35
2018-09-01T23:31:46.457Z,76.58
2018-09-01T23:34:22.215Z,78.04
2018-09-01T23:36:58.223Z,78.52
2018-09-01T23:39:34.213Z,78.12
2018-09-01T23:42:10.084Z,77.21
2018-09-01T23:44:45.885Z,76.79
2018-09-01T23:47:21.766Z,76.00
2018-09-01T23:49:57.489Z,74.80
2018-09-01T23:52:33.433Z,74.58
2018-09-01T23:55:09.413Z,74.50
2018-09-01T23:57:45.220Z,74.88
